METAR Data

Data at: 1005 UTC 21 Apr 2021

METAR for:KPYM (Plymouth Muni, MA, US)
Text:KPYM 210952Z AUTO VRB04KT 10SM CLR 08/07 A2986 RMK AO2 SLP110 T00830072
Temperature: 8.3°C ( 47°F)
Dewpoint: 7.2°C ( 45°F) [RH = 93%]
Pressure (altimeter):29.86 inches Hg (1011.3 mb) [Sea level pressure: 1011.0 mb]
Winds:variable direction winds at 5 MPH (4 knots; 2.1 m/s)
Visibility:10 or more sm (16+ km)
Ceiling:at least 12,000 feet AGL
Clouds:sky clear below 12,000 feet AGL
QC Flag:automated observation with no human augmentation